Aérodrome :
LOGIN :

S'inscrire | Disclaimer

   EN    FR    IT 

 










Légende :    VFR   VFR Marginal   IFR   IFR Intensif   IFR Très Intensif
Visi : 
Plafond : 
>= 8 km
>= 3000ft
5 à 8 km
1000 à 3000 ft
1500m à 5 km
500 à 1000 ft
800 à 1500m
200 à 500 ft
< 800m
< 200 ft
Symboles :   Orages  Brouillard  Fortes neiges  Fortes précipitations  Vent > 20 kt
SIGMETs :   Divers  Orages  Givrage  Turbulence  Onde Orograph.  Cendres Volcan.






- Altitude de l'aérodrome : 919 ft
- Code IATA : IFO


UKLI - Ivano Frankivs'k

DERNIER METAR :
  • 121030Z 00000MPS 9999 BKN046 08/06 Q1016 R10/190068 NOSIG

METARs EXPIRÉS :
  • 121000Z VRB01MPS 6000 BKN040 06/06 Q1016 R10/190068 NOSIG
  • 120930Z 00000MPS 5000 BR BKN033 04/04 Q1016 R28/190068 NOSIG
  • 120914Z 00000MPS 2500 BR BKN033 04/04 Q1017 R28/190068 NOSIG
  • 120900Z 11001MPS 7000 2000E BR BKN033 03/03 Q1017 R28/190068 NOSIG
  • 120853Z VRB01MPS 7000 1800E BR BKN033 03/03 Q1017 R28/190068 NOSIG
  • 120839Z VRB01MPS 4700 BR BKN033 03/03 Q1017 R28/190068 NOSIG
  • 120830Z VRB01MPS 6000 2200E BR OVC010 03/03 Q1017 R28/190068 NOSIG
  • 120823Z 12002MPS 070V150 3300 BR OVC010 03/03 Q1017 R28/190068 NOSIG
  • 120802Z 00000MPS 0700 0450E FG VV003 02/02 Q1017 R28/190068 NOSIG

TAF TAF UKLI
Valide du 12 à 09h jusqu'au 12 à 18h UTC


120804Z 1209/1218 13004G09MPS 4200 BR BKN020 TX12/1213Z TN05/1209Z
TEMPO 1209/1215 VRB01MPS 0800 FG VV003



MET'MAP, la Météo Aéronautique d'un coup d'oeil ! - Copyright ORBIFLY Décembre 2007 - Disclaimer

ORBIFLY MET'MAP TEAM :

Programmation & Développement : Alexandra Zaïnal
Conception & Développement : Baudouin d'Aumeries
Co-Programmation & Développement : Marc-Olivier Méhu
Soutien technique & logistique : Manuel Goepfert

Contact : metmap@orbifly.com




SOURCES & CREDITS :

   NOAA